This is the latest recevied weather packets stored in our database for station/object YN1ZSC-13. If no packets are shown the sender has not sent any weather packets the latest 10 day(s).
| Time | Temp. | Humidity | Pressure | Rain* | Wind** | Luminosity | Snow |
|---|---|---|---|---|---|---|---|
| 1778097378 | 35° C | 34% | 1008 hPa | 0 mm | - | - | - |
| 1778096777 | 35.56° C | 34% | 1008 hPa | 0 mm | - | - | - |
| 1778096177 | 36.11° C | 34% | 1008 hPa | 0 mm | - | - | - |
| 1778095576 | 36.67° C | 34% | 1010 hPa | 0 mm | - | - | - |
| 1778094976 | 33.33° C | 39% | 1010 hPa | 0 mm | - | - | - |
| 1778094375 | 33.89° C | 39% | 1010 hPa | 0 mm | - | - | - |
| 1778093775 | 33.89° C | 39% | 1009 hPa | 0 mm | - | - | - |
| 1778093174 | 33.89° C | 39% | 1010 hPa | 0 mm | - | - | - |
| 1778092574 | 34.44° C | 39% | 1010 hPa | 0 mm | - | - | - |
| 1778091973 | 32.22° C | 46% | 1011 hPa | 0 mm | - | - | - |
| 1778091372 | 32.78° C | 46% | 1011 hPa | 0 mm | - | - | - |
| 1778090772 | 32.78° C | 46% | 1011 hPa | 0 mm | - | - | - |
| 1778090171 | 32.78° C | 46% | 1011 hPa | 0 mm | - | - | - |
| 1778089571 | 33.33° C | 46% | 1011 hPa | 0 mm | - | - | - |
| 1778088970 | 32.22° C | 46% | 1011 hPa | 0 mm | - | - | - |
| 1778088369 | 31.11° C | 48% | 1012 hPa | 0 mm | - | - | - |
| 1778087769 | 31.11° C | 48% | 1012 hPa | 0 mm | - | - | - |
| 1778087168 | 31.67° C | 48% | 1012 hPa | 0 mm | - | - | - |
| 1778086568 | 31.11° C | 49% | 1012 hPa | 0 mm | - | - | - |
| 1778085967 | 31.67° C | 49% | 1012 hPa | 0 mm | - | - | - |
| 1778085366 | 30.56° C | 52% | 1012 hPa | 0 mm | - | - | - |
| 1778084766 | 31.11° C | 52% | 1012 hPa | 0 mm | - | - | - |
| 1778084165 | 31.67° C | 53% | 1012 hPa | 0 mm | - | - | - |
| 1778083565 | 31.67° C | 54% | 1012 hPa | 0 mm | - | - | - |
| 1778082964 | 29.44° C | 58% | 1012 hPa | 0 mm | - | - | - |
* Rain latest hour (hover to see other rain measurements)
** Current wind speed in m/s (hover to see current wind gust speed)